sensor_id;sensor_type;location;lat;lon;timestamp;P1;durP1;ratioP1;P2;durP2;ratioP2
16770;SDS011;8503;52.472;13.344;2022-11-02T00:01:14;9.88;;;6.22;;
16770;SDS011;8503;52.472;13.344;2022-11-02T00:02:41;11.50;;;6.63;;
16770;SDS011;8503;52.472;13.344;2022-11-02T00:04:04;11.65;;;6.70;;
16770;SDS011;8503;52.472;13.344;2022-11-02T00:05:27;12.60;;;6.82;;
16770;SDS011;8503;52.472;13.344;2022-11-02T00:06:51;20.30;;;6.82;;
16770;SDS011;8503;52.472;13.344;2022-11-02T00:08:14;10.38;;;6.07;;
16770;SDS011;8503;52.472;13.344;2022-11-02T00:09:37;15.25;;;6.45;;
16770;SDS011;8503;52.472;13.344;2022-11-02T00:11:00;18.83;;;6.10;;
16770;SDS011;8503;52.472;13.344;2022-11-02T00:12:23;11.23;;;6.05;;
16770;SDS011;8503;52.472;13.344;2022-11-02T00:13:46;17.63;;;6.90;;
16770;SDS011;8503;52.472;13.344;2022-11-02T00:15:09;11.10;;;6.88;;
16770;SDS011;8503;52.472;13.344;2022-11-02T00:16:33;14.57;;;6.80;;
16770;SDS011;8503;52.472;13.344;2022-11-02T00:18:00;19.40;;;7.18;;
16770;SDS011;8503;52.472;13.344;2022-11-02T00:19:24;10.15;;;6.22;;
16770;SDS011;8503;52.472;13.344;2022-11-02T00:20:48;10.82;;;5.50;;
16770;SDS011;8503;52.472;13.344;2022-11-02T00:22:11;11.95;;;6.07;;
16770;SDS011;8503;52.472;13.344;2022-11-02T00:23:34;11.68;;;6.63;;
16770;SDS011;8503;52.472;13.344;2022-11-02T00:24:57;10.63;;;6.47;;
16770;SDS011;8503;52.472;13.344;2022-11-02T00:26:21;11.52;;;6.18;;
16770;SDS011;8503;52.472;13.344;2022-11-02T00:27:44;10.63;;;6.82;;
16770;SDS011;8503;52.472;13.344;2022-11-02T00:29:08;15.73;;;5.82;;
16770;SDS011;8503;52.472;13.344;2022-11-02T00:30:30;13.43;;;6.90;;
16770;SDS011;8503;52.472;13.344;2022-11-02T00:31:55;9.13;;;5.90;;
16770;SDS011;8503;52.472;13.344;2022-11-02T00:33:17;12.88;;;6.03;;
16770;SDS011;8503;52.472;13.344;2022-11-02T00:34:41;9.18;;;6.03;;
16770;SDS011;8503;52.472;13.344;2022-11-02T00:36:04;10.30;;;6.50;;
16770;SDS011;8503;52.472;13.344;2022-11-02T00:37:27;9.15;;;5.82;;
16770;SDS011;8503;52.472;13.344;2022-11-02T00:38:50;11.18;;;5.53;;
16770;SDS011;8503;52.472;13.344;2022-11-02T00:40:17;11.40;;;6.60;;
16770;SDS011;8503;52.472;13.344;2022-11-02T00:41:40;14.48;;;5.55;;
16770;SDS011;8503;52.472;13.344;2022-11-02T00:43:04;11.30;;;6.25;;
16770;SDS011;8503;52.472;13.344;2022-11-02T00:44:26;10.30;;;5.78;;
16770;SDS011;8503;52.472;13.344;2022-11-02T00:45:50;12.77;;;5.35;;
16770;SDS011;8503;52.472;13.344;2022-11-02T00:47:13;11.48;;;6.07;;
16770;SDS011;8503;52.472;13.344;2022-11-02T00:48:37;7.90;;;5.18;;
16770;SDS011;8503;52.472;13.344;2022-11-02T00:49:59;6.07;;;4.93;;
16770;SDS011;8503;52.472;13.344;2022-11-02T00:51:23;12.18;;;6.18;;
16770;SDS011;8503;52.472;13.344;2022-11-02T00:52:46;9.55;;;5.93;;
16770;SDS011;8503;52.472;13.344;2022-11-02T00:54:09;9.32;;;5.18;;
16770;SDS011;8503;52.472;13.344;2022-11-02T00:55:33;11.15;;;5.53;;
16770;SDS011;8503;52.472;13.344;2022-11-02T00:56:56;13.48;;;5.40;;
16770;SDS011;8503;52.472;13.344;2022-11-02T00:58:19;17.90;;;5.68;;
16770;SDS011;8503;52.472;13.344;2022-11-02T00:59:42;10.40;;;5.55;;
16770;SDS011;8503;52.472;13.344;2022-11-02T01:01:05;9.98;;;5.57;;
16770;SDS011;8503;52.472;13.344;2022-11-02T01:02:30;9.15;;;5.07;;
16770;SDS011;8503;52.472;13.344;2022-11-02T01:03:54;9.02;;;5.57;;
16770;SDS011;8503;52.472;13.344;2022-11-02T01:05:18;11.32;;;5.00;;
16770;SDS011;8503;52.472;13.344;2022-11-02T01:06:40;10.05;;;5.55;;
16770;SDS011;8503;52.472;13.344;2022-11-02T01:08:04;11.45;;;5.05;;
16770;SDS011;8503;52.472;13.344;2022-11-02T01:09:27;11.13;;;5.20;;
16770;SDS011;8503;52.472;13.344;2022-11-02T01:10:51;9.95;;;5.20;;
16770;SDS011;8503;52.472;13.344;2022-11-02T01:12:13;13.75;;;5.78;;
16770;SDS011;8503;52.472;13.344;2022-11-02T01:13:37;13.18;;;5.15;;
16770;SDS011;8503;52.472;13.344;2022-11-02T01:15:00;14.48;;;5.40;;
16770;SDS011;8503;52.472;13.344;2022-11-02T01:16:24;13.00;;;5.13;;
16770;SDS011;8503;52.472;13.344;2022-11-02T01:17:49;9.65;;;5.20;;
16770;SDS011;8503;52.472;13.344;2022-11-02T01:19:12;9.10;;;5.30;;
16770;SDS011;8503;52.472;13.344;2022-11-02T01:20:35;11.73;;;5.32;;
16770;SDS011;8503;52.472;13.344;2022-11-02T01:21:58;9.20;;;4.60;;
16770;SDS011;8503;52.472;13.344;2022-11-02T01:23:22;10.13;;;5.07;;
16770;SDS011;8503;52.472;13.344;2022-11-02T01:24:46;7.50;;;5.50;;
16770;SDS011;8503;52.472;13.344;2022-11-02T01:26:10;8.38;;;4.90;;
16770;SDS011;8503;52.472;13.344;2022-11-02T01:27:33;9.35;;;5.90;;
16770;SDS011;8503;52.472;13.344;2022-11-02T01:28:57;9.70;;;4.82;;
16770;SDS011;8503;52.472;13.344;2022-11-02T01:30:19;7.05;;;4.90;;
16770;SDS011;8503;52.472;13.344;2022-11-02T01:31:43;11.05;;;5.43;;
16770;SDS011;8503;52.472;13.344;2022-11-02T01:33:07;12.50;;;5.05;;
16770;SDS011;8503;52.472;13.344;2022-11-02T01:34:30;9.63;;;4.45;;
16770;SDS011;8503;52.472;13.344;2022-11-02T01:35:53;12.15;;;5.40;;
16770;SDS011;8503;52.472;13.344;2022-11-02T01:37:16;6.80;;;4.88;;
16770;SDS011;8503;52.472;13.344;2022-11-02T01:38:39;10.13;;;4.65;;
16770;SDS011;8503;52.472;13.344;2022-11-02T01:40:02;11.18;;;4.63;;
16770;SDS011;8503;52.472;13.344;2022-11-02T01:41:26;11.88;;;5.57;;
16770;SDS011;8503;52.472;13.344;2022-11-02T01:42:49;9.88;;;5.45;;
16770;SDS011;8503;52.472;13.344;2022-11-02T01:45:53;10.73;;;4.80;;
16770;SDS011;8503;52.472;13.344;2022-11-02T01:47:19;7.57;;;4.47;;
16770;SDS011;8503;52.472;13.344;2022-11-02T01:48:46;10.98;;;4.93;;
16770;SDS011;8503;52.472;13.344;2022-11-02T01:50:11;6.60;;;4.43;;
16770;SDS011;8503;52.472;13.344;2022-11-02T01:51:37;9.40;;;5.00;;
16770;SDS011;8503;52.472;13.344;2022-11-02T01:53:03;12.45;;;4.45;;
16770;SDS011;8503;52.472;13.344;2022-11-02T01:54:26;8.73;;;4.38;;
16770;SDS011;8503;52.472;13.344;2022-11-02T01:55:52;8.30;;;4.20;;
16770;SDS011;8503;52.472;13.344;2022-11-02T01:57:16;8.10;;;4.40;;
16770;SDS011;8503;52.472;13.344;2022-11-02T01:58:41;6.10;;;4.07;;
16770;SDS011;8503;52.472;13.344;2022-11-02T02:00:06;13.52;;;4.88;;
16770;SDS011;8503;52.472;13.344;2022-11-02T02:01:31;7.40;;;4.03;;
16770;SDS011;8503;52.472;13.344;2022-11-02T02:02:55;11.45;;;4.43;;
16770;SDS011;8503;52.472;13.344;2022-11-02T02:04:24;7.18;;;3.88;;
16770;SDS011;8503;52.472;13.344;2022-11-02T02:05:48;9.80;;;4.30;;
16770;SDS011;8503;52.472;13.344;2022-11-02T02:07:16;9.57;;;3.67;;
16770;SDS011;8503;52.472;13.344;2022-11-02T02:08:41;10.80;;;4.07;;
16770;SDS011;8503;52.472;13.344;2022-11-02T02:10:06;8.65;;;3.85;;
16770;SDS011;8503;52.472;13.344;2022-11-02T02:11:31;6.28;;;4.00;;
16770;SDS011;8503;52.472;13.344;2022-11-02T02:12:56;8.90;;;4.05;;
16770;SDS011;8503;52.472;13.344;2022-11-02T02:14:19;5.47;;;3.45;;
16770;SDS011;8503;52.472;13.344;2022-11-02T02:15:46;8.38;;;4.40;;
16770;SDS011;8503;52.472;13.344;2022-11-02T02:17:21;5.95;;;3.50;;
16770;SDS011;8503;52.472;13.344;2022-11-02T02:18:51;6.43;;;3.20;;
16770;SDS011;8503;52.472;13.344;2022-11-02T02:20:22;8.02;;;3.60;;
16770;SDS011;8503;52.472;13.344;2022-11-02T02:21:57;9.30;;;3.63;;
16770;SDS011;8503;52.472;13.344;2022-11-02T02:23:52;9.05;;;3.45;;
16770;SDS011;8503;52.472;13.344;2022-11-02T02:25:34;10.27;;;3.30;;
16770;SDS011;8503;52.472;13.344;2022-11-02T02:27:11;5.28;;;3.25;;
16770;SDS011;8503;52.472;13.344;2022-11-02T02:28:39;9.93;;;3.45;;
16770;SDS011;8503;52.472;13.344;2022-11-02T02:30:04;8.50;;;3.05;;
16770;SDS011;8503;52.472;13.344;2022-11-02T02:31:31;5.57;;;3.17;;
16770;SDS011;8503;52.472;13.344;2022-11-02T02:32:59;3.30;;;2.80;;
16770;SDS011;8503;52.472;13.344;2022-11-02T02:34:27;4.43;;;3.10;;
16770;SDS011;8503;52.472;13.344;2022-11-02T02:35:54;7.65;;;3.53;;
16770;SDS011;8503;52.472;13.344;2022-11-02T02:37:20;4.38;;;2.97;;
16770;SDS011;8503;52.472;13.344;2022-11-02T02:38:51;6.22;;;3.10;;
16770;SDS011;8503;52.472;13.344;2022-11-02T02:40:18;7.38;;;2.83;;
16770;SDS011;8503;52.472;13.344;2022-11-02T02:41:45;4.95;;;3.33;;
16770;SDS011;8503;52.472;13.344;2022-11-02T02:43:11;4.18;;;2.60;;
16770;SDS011;8503;52.472;13.344;2022-11-02T02:44:39;7.85;;;2.83;;
16770;SDS011;8503;52.472;13.344;2022-11-02T02:46:07;6.95;;;2.88;;
16770;SDS011;8503;52.472;13.344;2022-11-02T02:47:31;11.40;;;3.05;;
16770;SDS011;8503;52.472;13.344;2022-11-02T02:48:54;6.97;;;2.80;;
16770;SDS011;8503;52.472;13.344;2022-11-02T02:50:19;4.95;;;2.65;;
16770;SDS011;8503;52.472;13.344;2022-11-02T02:51:43;6.60;;;3.30;;
16770;SDS011;8503;52.472;13.344;2022-11-02T02:53:07;4.82;;;2.95;;
16770;SDS011;8503;52.472;13.344;2022-11-02T02:54:33;8.77;;;2.80;;
16770;SDS011;8503;52.472;13.344;2022-11-02T02:55:57;6.60;;;2.72;;
16770;SDS011;8503;52.472;13.344;2022-11-02T02:57:21;5.43;;;3.20;;
16770;SDS011;8503;52.472;13.344;2022-11-02T02:58:46;9.48;;;3.08;;
16770;SDS011;8503;52.472;13.344;2022-11-02T03:00:14;3.65;;;2.80;;
16770;SDS011;8503;52.472;13.344;2022-11-02T03:01:38;4.18;;;2.75;;
16770;SDS011;8503;52.472;13.344;2022-11-02T03:03:02;6.25;;;2.78;;
16770;SDS011;8503;52.472;13.344;2022-11-02T03:04:25;7.47;;;2.95;;
16770;SDS011;8503;52.472;13.344;2022-11-02T03:05:58;4.25;;;2.72;;
16770;SDS011;8503;52.472;13.344;2022-11-02T03:07:27;8.57;;;3.33;;
16770;SDS011;8503;52.472;13.344;2022-11-02T03:08:56;9.52;;;4.10;;
16770;SDS011;8503;52.472;13.344;2022-11-02T03:10:28;8.68;;;3.80;;
16770;SDS011;8503;52.472;13.344;2022-11-02T03:11:59;5.22;;;2.75;;
16770;SDS011;8503;52.472;13.344;2022-11-02T03:13:34;6.90;;;2.67;;
16770;SDS011;8503;52.472;13.344;2022-11-02T03:15:03;7.65;;;2.95;;
16770;SDS011;8503;52.472;13.344;2022-11-02T03:16:43;5.43;;;2.95;;
16770;SDS011;8503;52.472;13.344;2022-11-02T03:18:24;5.30;;;2.80;;
16770;SDS011;8503;52.472;13.344;2022-11-02T03:19:52;8.57;;;2.95;;
16770;SDS011;8503;52.472;13.344;2022-11-02T03:21:22;5.95;;;3.13;;
16770;SDS011;8503;52.472;13.344;2022-11-02T03:22:50;16.00;;;6.38;;
16770;SDS011;8503;52.472;13.344;2022-11-02T03:24:18;10.48;;;4.03;;
16770;SDS011;8503;52.472;13.344;2022-11-02T03:25:49;10.05;;;4.35;;
16770;SDS011;8503;52.472;13.344;2022-11-02T03:27:18;9.95;;;3.10;;
16770;SDS011;8503;52.472;13.344;2022-11-02T03:28:48;10.80;;;2.47;;
16770;SDS011;8503;52.472;13.344;2022-11-02T03:30:18;5.35;;;2.72;;
16770;SDS011;8503;52.472;13.344;2022-11-02T03:31:44;3.25;;;2.33;;
16770;SDS011;8503;52.472;13.344;2022-11-02T03:33:13;4.90;;;2.47;;
16770;SDS011;8503;52.472;13.344;2022-11-02T03:34:41;7.90;;;2.58;;
16770;SDS011;8503;52.472;13.344;2022-11-02T03:36:06;6.15;;;2.92;;
16770;SDS011;8503;52.472;13.344;2022-11-02T03:37:32;6.65;;;3.10;;
16770;SDS011;8503;52.472;13.344;2022-11-02T03:38:57;5.18;;;2.58;;
16770;SDS011;8503;52.472;13.344;2022-11-02T03:40:26;10.05;;;2.67;;
16770;SDS011;8503;52.472;13.344;2022-11-02T03:41:50;8.40;;;2.50;;
16770;SDS011;8503;52.472;13.344;2022-11-02T03:43:14;4.35;;;2.42;;
16770;SDS011;8503;52.472;13.344;2022-11-02T03:44:39;4.13;;;2.55;;
16770;SDS011;8503;52.472;13.344;2022-11-02T03:46:04;6.20;;;2.60;;
16770;SDS011;8503;52.472;13.344;2022-11-02T03:47:30;7.55;;;2.67;;
16770;SDS011;8503;52.472;13.344;2022-11-02T03:48:55;6.13;;;3.00;;
16770;SDS011;8503;52.472;13.344;2022-11-02T03:50:19;10.57;;;2.85;;
16770;SDS011;8503;52.472;13.344;2022-11-02T03:51:43;4.57;;;2.42;;
16770;SDS011;8503;52.472;13.344;2022-11-02T03:53:08;7.78;;;3.38;;
16770;SDS011;8503;52.472;13.344;2022-11-02T03:54:37;4.18;;;2.70;;
16770;SDS011;8503;52.472;13.344;2022-11-02T03:56:04;5.57;;;2.97;;
16770;SDS011;8503;52.472;13.344;2022-11-02T03:57:31;4.97;;;2.38;;
16770;SDS011;8503;52.472;13.344;2022-11-02T03:58:57;7.50;;;2.88;;
16770;SDS011;8503;52.472;13.344;2022-11-02T04:00:20;6.85;;;2.70;;
16770;SDS011;8503;52.472;13.344;2022-11-02T04:01:44;5.97;;;2.90;;
16770;SDS011;8503;52.472;13.344;2022-11-02T04:03:11;8.15;;;2.60;;
16770;SDS011;8503;52.472;13.344;2022-11-02T04:04:33;5.22;;;2.60;;
16770;SDS011;8503;52.472;13.344;2022-11-02T04:05:57;8.35;;;3.25;;
16770;SDS011;8503;52.472;13.344;2022-11-02T04:07:26;4.88;;;2.88;;
16770;SDS011;8503;52.472;13.344;2022-11-02T04:09:19;5.32;;;2.72;;
16770;SDS011;8503;52.472;13.344;2022-11-02T04:10:43;4.57;;;2.50;;
16770;SDS011;8503;52.472;13.344;2022-11-02T04:12:24;5.18;;;2.88;;
16770;SDS011;8503;52.472;13.344;2022-11-02T04:14:04;5.57;;;2.80;;
16770;SDS011;8503;52.472;13.344;2022-11-02T04:15:45;5.88;;;2.50;;
16770;SDS011;8503;52.472;13.344;2022-11-02T04:17:09;6.47;;;3.00;;
16770;SDS011;8503;52.472;13.344;2022-11-02T04:18:57;8.60;;;3.03;;
16770;SDS011;8503;52.472;13.344;2022-11-02T04:20:37;5.35;;;2.83;;
16770;SDS011;8503;52.472;13.344;2022-11-02T04:22:01;8.00;;;3.17;;
16770;SDS011;8503;52.472;13.344;2022-11-02T04:23:41;4.72;;;2.30;;
16770;SDS011;8503;52.472;13.344;2022-11-02T04:25:22;8.65;;;2.60;;
16770;SDS011;8503;52.472;13.344;2022-11-02T04:26:46;4.88;;;2.33;;
16770;SDS011;8503;52.472;13.344;2022-11-02T04:28:08;7.47;;;2.55;;
16770;SDS011;8503;52.472;13.344;2022-11-02T04:29:31;6.55;;;2.67;;
16770;SDS011;8503;52.472;13.344;2022-11-02T04:30:56;11.88;;;2.90;;
16770;SDS011;8503;52.472;13.344;2022-11-02T04:32:20;4.75;;;2.60;;
16770;SDS011;8503;52.472;13.344;2022-11-02T04:33:59;11.65;;;2.83;;
16770;SDS011;8503;52.472;13.344;2022-11-02T04:35:21;9.32;;;2.78;;
16770;SDS011;8503;52.472;13.344;2022-11-02T04:36:44;3.65;;;2.28;;
16770;SDS011;8503;52.472;13.344;2022-11-02T04:38:08;7.15;;;2.88;;
16770;SDS011;8503;52.472;13.344;2022-11-02T04:39:49;4.68;;;2.25;;
16770;SDS011;8503;52.472;13.344;2022-11-02T04:41:17;6.97;;;2.85;;
16770;SDS011;8503;52.472;13.344;2022-11-02T04:43:02;8.50;;;2.03;;
16770;SDS011;8503;52.472;13.344;2022-11-02T04:44:25;8.55;;;2.10;;
16770;SDS011;8503;52.472;13.344;2022-11-02T04:45:49;10.45;;;2.80;;
16770;SDS011;8503;52.472;13.344;2022-11-02T04:47:11;5.38;;;2.50;;
16770;SDS011;8503;52.472;13.344;2022-11-02T04:48:35;11.48;;;2.47;;
16770;SDS011;8503;52.472;13.344;2022-11-02T04:49:58;9.57;;;2.67;;
16770;SDS011;8503;52.472;13.344;2022-11-02T04:51:22;5.88;;;2.70;;
16770;SDS011;8503;52.472;13.344;2022-11-02T04:52:53;6.80;;;2.35;;
16770;SDS011;8503;52.472;13.344;2022-11-02T04:54:17;8.27;;;2.47;;
16770;SDS011;8503;52.472;13.344;2022-11-02T04:55:40;7.95;;;2.60;;
16770;SDS011;8503;52.472;13.344;2022-11-02T04:57:03;8.65;;;2.95;;
16770;SDS011;8503;52.472;13.344;2022-11-02T04:58:26;7.45;;;2.53;;
16770;SDS011;8503;52.472;13.344;2022-11-02T04:59:49;7.70;;;2.42;;
16770;SDS011;8503;52.472;13.344;2022-11-02T05:01:13;7.95;;;2.70;;
16770;SDS011;8503;52.472;13.344;2022-11-02T05:02:36;7.55;;;2.47;;
16770;SDS011;8503;52.472;13.344;2022-11-02T05:04:00;8.77;;;2.90;;
16770;SDS011;8503;52.472;13.344;2022-11-02T05:05:25;7.10;;;2.00;;
16770;SDS011;8503;52.472;13.344;2022-11-02T05:06:48;8.80;;;1.77;;
16770;SDS011;8503;52.472;13.344;2022-11-02T05:08:10;7.95;;;2.30;;
16770;SDS011;8503;52.472;13.344;2022-11-02T05:09:34;11.68;;;2.10;;
16770;SDS011;8503;52.472;13.344;2022-11-02T05:10:57;12.15;;;2.40;;
16770;SDS011;8503;52.472;13.344;2022-11-02T05:12:20;3.30;;;1.95;;
16770;SDS011;8503;52.472;13.344;2022-11-02T05:13:49;7.20;;;2.17;;
16770;SDS011;8503;52.472;13.344;2022-11-02T05:15:12;6.43;;;2.03;;
16770;SDS011;8503;52.472;13.344;2022-11-02T05:16:35;7.47;;;2.22;;
16770;SDS011;8503;52.472;13.344;2022-11-02T05:17:58;9.02;;;2.80;;
16770;SDS011;8503;52.472;13.344;2022-11-02T05:19:22;9.93;;;2.15;;
16770;SDS011;8503;52.472;13.344;2022-11-02T05:20:50;6.40;;;2.13;;
16770;SDS011;8503;52.472;13.344;2022-11-02T05:22:13;7.00;;;2.42;;
16770;SDS011;8503;52.472;13.344;2022-11-02T05:23:36;12.95;;;2.25;;
16770;SDS011;8503;52.472;13.344;2022-11-02T05:24:59;7.18;;;2.13;;
16770;SDS011;8503;52.472;13.344;2022-11-02T05:26:23;9.57;;;2.35;;
16770;SDS011;8503;52.472;13.344;2022-11-02T05:27:46;6.32;;;2.30;;
16770;SDS011;8503;52.472;13.344;2022-11-02T05:29:10;7.55;;;2.28;;
16770;SDS011;8503;52.472;13.344;2022-11-02T05:30:32;8.40;;;2.28;;
16770;SDS011;8503;52.472;13.344;2022-11-02T05:31:55;2.60;;;2.05;;
16770;SDS011;8503;52.472;13.344;2022-11-02T05:33:18;8.85;;;2.72;;
16770;SDS011;8503;52.472;13.344;2022-11-02T05:34:46;10.77;;;1.90;;
16770;SDS011;8503;52.472;13.344;2022-11-02T05:36:11;8.80;;;2.28;;
16770;SDS011;8503;52.472;13.344;2022-11-02T05:37:34;9.98;;;2.80;;
16770;SDS011;8503;52.472;13.344;2022-11-02T05:38:58;5.65;;;2.05;;
16770;SDS011;8503;52.472;13.344;2022-11-02T05:40:20;7.97;;;2.00;;
16770;SDS011;8503;52.472;13.344;2022-11-02T05:41:44;9.80;;;2.38;;
16770;SDS011;8503;52.472;13.344;2022-11-02T05:43:07;6.68;;;1.90;;
16770;SDS011;8503;52.472;13.344;2022-11-02T05:44:30;19.13;;;2.45;;
16770;SDS011;8503;52.472;13.344;2022-11-02T05:45:54;6.97;;;1.85;;
16770;SDS011;8503;52.472;13.344;2022-11-02T05:47:17;6.28;;;2.00;;
16770;SDS011;8503;52.472;13.344;2022-11-02T05:48:41;9.40;;;2.17;;
16770;SDS011;8503;52.472;13.344;2022-11-02T05:50:04;12.35;;;2.05;;
16770;SDS011;8503;52.472;13.344;2022-11-02T05:51:29;10.63;;;2.47;;
16770;SDS011;8503;52.472;13.344;2022-11-02T05:52:55;8.45;;;1.88;;
16770;SDS011;8503;52.472;13.344;2022-11-02T05:54:19;9.52;;;2.03;;
16770;SDS011;8503;52.472;13.344;2022-11-02T05:55:43;5.72;;;2.13;;
16770;SDS011;8503;52.472;13.344;2022-11-02T05:57:06;4.18;;;1.83;;
16770;SDS011;8503;52.472;13.344;2022-11-02T05:58:30;10.20;;;2.35;;
16770;SDS011;8503;52.472;13.344;2022-11-02T05:59:54;8.77;;;2.00;;
16770;SDS011;8503;52.472;13.344;2022-11-02T06:01:16;7.25;;;2.53;;
16770;SDS011;8503;52.472;13.344;2022-11-02T06:02:39;6.95;;;1.92;;
16770;SDS011;8503;52.472;13.344;2022-11-02T06:04:02;5.35;;;2.15;;
16770;SDS011;8503;52.472;13.344;2022-11-02T06:05:25;5.85;;;1.73;;
16770;SDS011;8503;52.472;13.344;2022-11-02T06:06:50;5.78;;;2.28;;
16770;SDS011;8503;52.472;13.344;2022-11-02T06:08:13;11.35;;;2.10;;
16770;SDS011;8503;52.472;13.344;2022-11-02T06:09:36;13.93;;;2.42;;
16770;SDS011;8503;52.472;13.344;2022-11-02T06:11:02;12.68;;;2.42;;
16770;SDS011;8503;52.472;13.344;2022-11-02T06:12:26;11.05;;;2.55;;
16770;SDS011;8503;52.472;13.344;2022-11-02T06:13:49;6.47;;;2.00;;
16770;SDS011;8503;52.472;13.344;2022-11-02T06:15:13;10.48;;;2.63;;
16770;SDS011;8503;52.472;13.344;2022-11-02T06:16:36;6.25;;;1.80;;
16770;SDS011;8503;52.472;13.344;2022-11-02T06:17:59;17.70;;;2.80;;
16770;SDS011;8503;52.472;13.344;2022-11-02T06:19:22;9.23;;;2.03;;
16770;SDS011;8503;52.472;13.344;2022-11-02T06:20:45;6.75;;;2.03;;
16770;SDS011;8503;52.472;13.344;2022-11-02T06:22:10;10.60;;;2.40;;
16770;SDS011;8503;52.472;13.344;2022-11-02T06:23:34;12.13;;;2.40;;
16770;SDS011;8503;52.472;13.344;2022-11-02T06:24:59;11.20;;;2.28;;
16770;SDS011;8503;52.472;13.344;2022-11-02T06:26:22;11.13;;;2.60;;
16770;SDS011;8503;52.472;13.344;2022-11-02T06:27:49;5.50;;;1.67;;
16770;SDS011;8503;52.472;13.344;2022-11-02T06:29:13;6.35;;;2.22;;
16770;SDS011;8503;52.472;13.344;2022-11-02T06:30:36;10.32;;;1.80;;
16770;SDS011;8503;52.472;13.344;2022-11-02T06:31:59;9.07;;;1.88;;
16770;SDS011;8503;52.472;13.344;2022-11-02T06:33:22;6.00;;;2.25;;
16770;SDS011;8503;52.472;13.344;2022-11-02T06:34:44;12.90;;;2.33;;
16770;SDS011;8503;52.472;13.344;2022-11-02T06:36:08;6.05;;;2.45;;
16770;SDS011;8503;52.472;13.344;2022-11-02T06:37:33;5.93;;;2.13;;
16770;SDS011;8503;52.472;13.344;2022-11-02T06:38:55;3.65;;;1.73;;
16770;SDS011;8503;52.472;13.344;2022-11-02T06:40:19;7.10;;;2.22;;
16770;SDS011;8503;52.472;13.344;2022-11-02T06:41:46;10.98;;;2.53;;
16770;SDS011;8503;52.472;13.344;2022-11-02T06:43:10;13.55;;;2.78;;
16770;SDS011;8503;52.472;13.344;2022-11-02T06:44:38;4.88;;;2.25;;
16770;SDS011;8503;52.472;13.344;2022-11-02T06:46:01;9.75;;;2.10;;
16770;SDS011;8503;52.472;13.344;2022-11-02T06:47:27;7.25;;;3.08;;
16770;SDS011;8503;52.472;13.344;2022-11-02T06:48:52;11.57;;;2.97;;
16770;SDS011;8503;52.472;13.344;2022-11-02T06:50:16;7.03;;;2.42;;
16770;SDS011;8503;52.472;13.344;2022-11-02T06:51:39;11.05;;;2.63;;
16770;SDS011;8503;52.472;13.344;2022-11-02T06:53:04;7.07;;;2.03;;
16770;SDS011;8503;52.472;13.344;2022-11-02T06:54:28;8.25;;;2.15;;
16770;SDS011;8503;52.472;13.344;2022-11-02T06:55:51;24.05;;;2.25;;
16770;SDS011;8503;52.472;13.344;2022-11-02T06:57:15;8.85;;;2.17;;
16770;SDS011;8503;52.472;13.344;2022-11-02T06:58:38;9.88;;;2.22;;
16770;SDS011;8503;52.472;13.344;2022-11-02T07:00:02;5.18;;;1.73;;
16770;SDS011;8503;52.472;13.344;2022-11-02T07:01:26;7.70;;;2.33;;
16770;SDS011;8503;52.472;13.344;2022-11-02T07:02:57;9.35;;;2.78;;
16770;SDS011;8503;52.472;13.344;2022-11-02T07:04:21;3.97;;;1.63;;
16770;SDS011;8503;52.472;13.344;2022-11-02T07:05:48;14.00;;;2.10;;
16770;SDS011;8503;52.472;13.344;2022-11-02T07:07:12;11.60;;;1.90;;
16770;SDS011;8503;52.472;13.344;2022-11-02T07:08:37;3.95;;;2.38;;
16770;SDS011;8503;52.472;13.344;2022-11-02T07:10:01;5.70;;;2.15;;
16770;SDS011;8503;52.472;13.344;2022-11-02T07:11:25;4.55;;;1.85;;
16770;SDS011;8503;52.472;13.344;2022-11-02T07:12:50;9.95;;;2.22;;
16770;SDS011;8503;52.472;13.344;2022-11-02T07:14:13;7.90;;;1.73;;
16770;SDS011;8503;52.472;13.344;2022-11-02T07:15:37;11.73;;;2.17;;
16770;SDS011;8503;52.472;13.344;2022-11-02T07:16:59;15.52;;;2.22;;
16770;SDS011;8503;52.472;13.344;2022-11-02T07:18:23;11.48;;;2.15;;
16770;SDS011;8503;52.472;13.344;2022-11-02T07:19:46;6.00;;;1.92;;
16770;SDS011;8503;52.472;13.344;2022-11-02T07:21:09;8.15;;;1.77;;
16770;SDS011;8503;52.472;13.344;2022-11-02T07:22:33;5.70;;;1.67;;
16770;SDS011;8503;52.472;13.344;2022-11-02T07:23:58;7.05;;;2.25;;
16770;SDS011;8503;52.472;13.344;2022-11-02T07:25:21;9.98;;;2.28;;
16770;SDS011;8503;52.472;13.344;2022-11-02T07:26:46;7.22;;;1.60;;
16770;SDS011;8503;52.472;13.344;2022-11-02T07:28:10;5.75;;;1.55;;
16770;SDS011;8503;52.472;13.344;2022-11-02T07:29:34;6.32;;;2.20;;
16770;SDS011;8503;52.472;13.344;2022-11-02T07:30:57;6.50;;;1.98;;
16770;SDS011;8503;52.472;13.344;2022-11-02T07:32:20;9.15;;;1.90;;
16770;SDS011;8503;52.472;13.344;2022-11-02T07:33:44;8.68;;;1.88;;
16770;SDS011;8503;52.472;13.344;2022-11-02T07:35:08;11.48;;;2.33;;
16770;SDS011;8503;52.472;13.344;2022-11-02T07:36:32;4.72;;;1.80;;
16770;SDS011;8503;52.472;13.344;2022-11-02T07:37:56;6.38;;;1.92;;
16770;SDS011;8503;52.472;13.344;2022-11-02T07:39:21;9.68;;;2.15;;
16770;SDS011;8503;52.472;13.344;2022-11-02T07:40:46;6.43;;;1.35;;
16770;SDS011;8503;52.472;13.344;2022-11-02T07:42:10;4.82;;;1.80;;
16770;SDS011;8503;52.472;13.344;2022-11-02T07:43:34;8.05;;;1.73;;
16770;SDS011;8503;52.472;13.344;2022-11-02T07:45:03;4.90;;;1.40;;
16770;SDS011;8503;52.472;13.344;2022-11-02T07:46:27;5.80;;;1.88;;
16770;SDS011;8503;52.472;13.344;2022-11-02T07:47:50;4.07;;;1.70;;
16770;SDS011;8503;52.472;13.344;2022-11-02T07:49:14;5.63;;;1.67;;
16770;SDS011;8503;52.472;13.344;2022-11-02T07:50:41;7.53;;;1.90;;
16770;SDS011;8503;52.472;13.344;2022-11-02T07:52:05;2.40;;;1.33;;
16770;SDS011;8503;52.472;13.344;2022-11-02T07:53:28;7.43;;;2.13;;
16770;SDS011;8503;52.472;13.344;2022-11-02T07:54:53;7.63;;;1.50;;
16770;SDS011;8503;52.472;13.344;2022-11-02T07:56:16;3.90;;;1.73;;
16770;SDS011;8503;52.472;13.344;2022-11-02T07:57:40;4.82;;;2.05;;
16770;SDS011;8503;52.472;13.344;2022-11-02T07:59:04;10.57;;;1.90;;
16770;SDS011;8503;52.472;13.344;2022-11-02T08:00:28;10.43;;;2.10;;
16770;SDS011;8503;52.472;13.344;2022-11-02T08:01:52;7.28;;;1.52;;
16770;SDS011;8503;52.472;13.344;2022-11-02T08:03:15;3.28;;;1.48;;
16770;SDS011;8503;52.472;13.344;2022-11-02T08:04:39;7.05;;;1.55;;
16770;SDS011;8503;52.472;13.344;2022-11-02T08:06:05;2.75;;;1.27;;
16770;SDS011;8503;52.472;13.344;2022-11-02T08:07:28;9.57;;;1.88;;
16770;SDS011;8503;52.472;13.344;2022-11-02T08:08:51;4.28;;;1.55;;
16770;SDS011;8503;52.472;13.344;2022-11-02T08:10:16;5.78;;;1.33;;
16770;SDS011;8503;52.472;13.344;2022-11-02T08:11:39;7.80;;;1.48;;
16770;SDS011;8503;52.472;13.344;2022-11-02T08:13:02;7.82;;;1.80;;
16770;SDS011;8503;52.472;13.344;2022-11-02T08:14:25;8.75;;;1.80;;
16770;SDS011;8503;52.472;13.344;2022-11-02T08:15:48;6.22;;;1.67;;
16770;SDS011;8503;52.472;13.344;2022-11-02T08:17:12;7.97;;;1.67;;
16770;SDS011;8503;52.472;13.344;2022-11-02T08:18:35;9.20;;;1.65;;
16770;SDS011;8503;52.472;13.344;2022-11-02T08:19:59;4.20;;;1.70;;
16770;SDS011;8503;52.472;13.344;2022-11-02T08:21:22;6.47;;;1.88;;
16770;SDS011;8503;52.472;13.344;2022-11-02T08:22:45;8.90;;;1.90;;
16770;SDS011;8503;52.472;13.344;2022-11-02T08:24:09;4.10;;;1.48;;
16770;SDS011;8503;52.472;13.344;2022-11-02T08:25:33;4.82;;;1.42;;
16770;SDS011;8503;52.472;13.344;2022-11-02T08:26:57;4.72;;;1.80;;
16770;SDS011;8503;52.472;13.344;2022-11-02T08:28:21;6.25;;;1.90;;
16770;SDS011;8503;52.472;13.344;2022-11-02T08:29:46;7.70;;;1.90;;
16770;SDS011;8503;52.472;13.344;2022-11-02T08:31:10;4.13;;;1.70;;
16770;SDS011;8503;52.472;13.344;2022-11-02T08:32:36;8.48;;;1.75;;
16770;SDS011;8503;52.472;13.344;2022-11-02T08:33:59;5.55;;;2.25;;